Time;durP1;ratioP1;P1;durP2;ratioP2;P2;SDS_P1;SDS_P2;PMS_P1;PMS_P2;Temp;Humidity;BMP_temperature;BMP_pressure;BME280_temperature;BME280_humidity;BME280_pressure;Samples;Min_cycle;Max_cycle;Signal;HPM_P1;HPM_P2
2023/04/28 00:00:50;;;;;;;;;;;14.40;34.40;;;;;;5048776;28;20209;-61
2023/04/28 00:03:16;;;;;;;;;;;14.50;34.40;;;;;;5048097;28;19924;-61
2023/04/28 00:05:41;;;;;;;;;;;14.40;34.40;;;;;;5048407;28;19957;-60
2023/04/28 00:08:07;;;;;;;;;;;14.50;34.40;;;;;;5048015;28;20019;-61
2023/04/28 00:10:32;;;;;;;;;;;14.50;34.40;;;;;;5048289;28;20347;-60
2023/04/28 00:12:58;;;;;;;;;;;14.50;34.50;;;;;;5048227;28;20419;-60
2023/04/28 00:15:23;;;;;;;;;;;14.50;34.50;;;;;;5047825;28;19913;-61
2023/04/28 00:17:49;;;;;;;;;;;14.50;34.60;;;;;;5048445;28;19924;-60
2023/04/28 00:20:14;;;;;;;;;;;14.60;34.60;;;;;;5057259;28;19988;-60
2023/04/28 00:22:40;;;;;;;;;;;14.60;34.60;;;;;;5068045;28;20003;-61
2023/04/28 00:25:05;;;;;;;;;;;14.60;34.50;;;;;;5067837;28;19909;-61
2023/04/28 00:27:31;;;;;;;;;;;14.60;34.50;;;;;;5068068;28;19928;-61
2023/04/28 00:29:57;;;;;;;;;;;14.60;34.50;;;;;;5049533;28;19943;-60
2023/04/28 00:32:22;;;;;;;;;;;14.60;34.50;;;;;;5049680;28;19982;-60
2023/04/28 00:34:48;;;;;;;;;;;14.60;34.60;;;;;;5067747;28;19938;-60
2023/04/28 00:37:13;;;;;;;;;;;14.60;34.60;;;;;;5067431;28;20138;-60
2023/04/28 00:39:40;;;;;;;;;;;14.70;34.60;;;;;;5053570;28;20002;-60
2023/04/28 00:42:06;;;;;;;;;;;14.70;34.60;;;;;;5029628;28;19920;-60
2023/04/28 00:44:31;;;;;;;;;;;14.70;34.60;;;;;;5047454;28;19962;-61
2023/04/28 00:46:58;;;;;;;;;;;14.70;34.70;;;;;;5047207;28;19990;-60
2023/04/28 00:49:23;;;;;;;;;;;14.70;34.70;;;;;;5046975;28;19912;-60
2023/04/28 00:51:49;;;;;;;;;;;14.70;34.80;;;;;;5047218;28;19971;-60
2023/04/28 00:54:15;;;;;;;;;;;14.70;34.90;;;;;;5047096;28;20426;-60
2023/04/28 00:56:41;;;;;;;;;;;14.70;34.90;;;;;;5047622;28;19909;-61
2023/04/28 00:59:06;;;;;;;;;;;14.70;35.00;;;;;;5047133;28;19920;-60
2023/04/28 01:01:32;;;;;;;;;;;14.70;35.00;;;;;;5029307;28;19912;-61
2023/04/28 01:03:57;;;;;;;;;;;14.70;35.00;;;;;;5047134;28;20291;-60
2023/04/28 01:06:23;;;;;;;;;;;14.70;35.00;;;;;;5047350;28;20328;-61
2023/04/28 01:08:52;;;;;;;;;;;14.70;35.10;;;;;;5047107;28;19920;-60
2023/04/28 01:11:17;;;;;;;;;;;14.70;35.10;;;;;;5047379;28;19919;-60
2023/04/28 01:13:43;;;;;;;;;;;14.70;35.10;;;;;;5047295;28;19917;-61
2023/04/28 01:16:08;;;;;;;;;;;14.70;35.20;;;;;;5047457;28;20000;-60
2023/04/28 01:18:34;;;;;;;;;;;14.80;35.20;;;;;;5046885;28;19999;-61
2023/04/28 01:20:59;;;;;;;;;;;14.80;35.20;;;;;;5062318;28;20034;-61
2023/04/28 01:23:25;;;;;;;;;;;14.80;35.10;;;;;;5066969;28;19912;-61
2023/04/28 01:25:50;;;;;;;;;;;14.80;35.20;;;;;;5066940;28;20314;-61
2023/04/28 01:28:16;;;;;;;;;;;14.80;35.20;;;;;;5066610;28;19936;-60
2023/04/28 01:30:41;;;;;;;;;;;14.80;35.20;;;;;;5048975;28;20403;-60
2023/04/28 01:33:06;;;;;;;;;;;14.80;35.30;;;;;;5048533;28;19952;-60
2023/04/28 01:35:32;;;;;;;;;;;14.80;35.40;;;;;;5066928;28;20350;-61
2023/04/28 01:37:57;;;;;;;;;;;14.80;35.50;;;;;;5048627;28;19919;-60
2023/04/28 01:40:23;;;;;;;;;;;14.80;35.50;;;;;;5046394;28;19921;-61
2023/04/28 01:42:48;;;;;;;;;;;14.80;35.50;;;;;;5046664;28;19996;-60
2023/04/28 01:45:14;;;;;;;;;;;14.80;35.50;;;;;;5046084;28;20368;-61
2023/04/28 01:47:40;;;;;;;;;;;14.80;35.60;;;;;;5046327;28;19913;-61
2023/04/28 01:50:05;;;;;;;;;;;14.80;35.60;;;;;;5046547;28;19990;-59
2023/04/28 01:52:31;;;;;;;;;;;14.80;35.70;;;;;;5046357;28;20019;-61
2023/04/28 01:54:56;;;;;;;;;;;14.70;35.70;;;;;;5046308;28;19938;-61
2023/04/28 01:57:22;;;;;;;;;;;14.80;35.80;;;;;;5046479;28;19917;-60
2023/04/28 01:59:47;;;;;;;;;;;14.80;35.80;;;;;;5046574;28;19913;-59
2023/04/28 02:02:13;;;;;;;;;;;14.70;35.90;;;;;;5046082;28;19939;-60
2023/04/28 02:04:38;;;;;;;;;;;14.80;36.00;;;;;;5046299;28;20331;-61
2023/04/28 02:07:04;;;;;;;;;;;14.80;36.00;;;;;;5046592;28;19991;-59
2023/04/28 02:09:30;;;;;;;;;;;14.80;36.00;;;;;;5028502;28;19913;-60
2023/04/28 02:11:55;;;;;;;;;;;14.80;36.10;;;;;;5046668;28;19920;-61
2023/04/28 02:14:21;;;;;;;;;;;14.80;36.10;;;;;;5046086;28;20011;-61
2023/04/28 02:16:46;;;;;;;;;;;14.80;36.10;;;;;;5046293;28;19913;-61
2023/04/28 02:19:11;;;;;;;;;;;14.80;36.10;;;;;;5046868;28;19913;-61
2023/04/28 02:21:37;;;;;;;;;;;14.80;36.10;;;;;;5065859;28;19924;-59
2023/04/28 02:24:03;;;;;;;;;;;14.90;36.20;;;;;;5065914;28;19987;-60
2023/04/28 02:26:28;;;;;;;;;;;14.80;36.30;;;;;;5066371;28;19912;-61
2023/04/28 02:28:53;;;;;;;;;;;14.90;36.20;;;;;;5066654;28;19912;-61
2023/04/28 02:31:19;;;;;;;;;;;14.90;36.30;;;;;;5066290;28;20292;-61
2023/04/28 02:33:44;;;;;;;;;;;14.90;36.30;;;;;;5066390;28;19912;-60
2023/04/28 02:36:10;;;;;;;;;;;14.90;36.30;;;;;;5058673;28;19991;-61
2023/04/28 02:38:35;;;;;;;;;;;14.90;36.30;;;;;;5045884;28;20000;-60
2023/04/28 02:41:05;;;;;;;;;;;15.00;36.30;;;;;;5046324;28;20145;-61
2023/04/28 02:43:31;;;;;;;;;;;15.00;36.30;;;;;;5045965;28;19993;-61
2023/04/28 02:45:56;;;;;;;;;;;15.00;36.30;;;;;;5046482;28;20025;-61
2023/04/28 02:48:22;;;;;;;;;;;14.90;36.30;;;;;;5045981;28;20453;-60
2023/04/28 02:50:48;;;;;;;;;;;15.00;36.40;;;;;;5045777;28;19952;-61
2023/04/28 02:53:13;;;;;;;;;;;15.00;36.40;;;;;;5045736;28;19931;-61
2023/04/28 02:55:38;;;;;;;;;;;15.00;36.40;;;;;;5045781;28;19913;-61
2023/04/28 02:58:04;;;;;;;;;;;15.00;36.50;;;;;;5045790;28;19919;-60
2023/04/28 03:00:29;;;;;;;;;;;15.00;36.40;;;;;;5047901;28;19920;-60
2023/04/28 03:02:55;;;;;;;;;;;15.00;36.50;;;;;;5049726;28;19956;-60
2023/04/28 03:05:20;;;;;;;;;;;15.00;36.50;;;;;;5049344;28;19963;-60
2023/04/28 03:07:46;;;;;;;;;;;15.00;36.50;;;;;;5049251;28;20011;-60
2023/04/28 03:10:11;;;;;;;;;;;15.00;36.50;;;;;;5049525;28;19917;-61
2023/04/28 03:12:37;;;;;;;;;;;15.00;36.50;;;;;;5049012;28;19921;-61
2023/04/28 03:15:02;;;;;;;;;;;15.10;36.50;;;;;;5049551;28;19921;-61
2023/04/28 03:17:28;;;;;;;;;;;15.10;36.40;;;;;;5049219;28;19912;-61
2023/04/28 03:19:53;;;;;;;;;;;15.10;36.50;;;;;;5037493;28;20256;-61
2023/04/28 03:22:18;;;;;;;;;;;15.10;36.50;;;;;;5068976;28;19916;-61
2023/04/28 03:24:44;;;;;;;;;;;15.10;36.50;;;;;;5069110;28;19963;-59
2023/04/28 03:27:10;;;;;;;;;;;15.10;36.50;;;;;;5068857;28;20010;-61
2023/04/28 03:29:35;;;;;;;;;;;15.10;36.50;;;;;;5069116;28;19916;-60
2023/04/28 03:32:01;;;;;;;;;;;15.10;36.50;;;;;;5069001;28;20556;-60
2023/04/28 03:34:26;;;;;;;;;;;15.20;36.60;;;;;;5068562;28;19919;-61
2023/04/28 03:36:52;;;;;;;;;;;15.10;36.50;;;;;;5068702;28;19923;-61
2023/04/28 03:39:17;;;;;;;;;;;15.20;36.60;;;;;;5068623;28;20284;-60
2023/04/28 03:41:42;;;;;;;;;;;15.10;36.60;;;;;;5068782;28;19954;-60
2023/04/28 03:44:08;;;;;;;;;;;15.20;36.70;;;;;;5056995;28;19909;-60
2023/04/28 03:46:33;;;;;;;;;;;15.20;36.70;;;;;;5048254;28;19916;-60
2023/04/28 03:49:01;;;;;;;;;;;15.20;36.80;;;;;;5048633;28;20569;-60
2023/04/28 03:51:27;;;;;;;;;;;15.20;36.80;;;;;;5048491;28;20303;-60
2023/04/28 03:53:53;;;;;;;;;;;15.20;36.80;;;;;;5048222;28;19916;-60
2023/04/28 03:56:19;;;;;;;;;;;15.20;36.80;;;;;;5048161;28;19913;-60
2023/04/28 03:58:45;;;;;;;;;;;15.20;36.80;;;;;;5048816;28;19944;-60
2023/04/28 04:01:10;;;;;;;;;;;15.20;36.80;;;;;;5048569;28;19990;-60
2023/04/28 04:03:35;;;;;;;;;;;15.20;36.90;;;;;;5048558;28;19921;-61
2023/04/28 04:06:01;;;;;;;;;;;15.30;36.90;;;;;;5048836;28;19913;-60
2023/04/28 04:08:26;;;;;;;;;;;15.30;36.80;;;;;;5048379;28;19916;-60
2023/04/28 04:10:53;;;;;;;;;;;15.30;36.80;;;;;;5047772;28;19924;-60
2023/04/28 04:13:19;;;;;;;;;;;15.30;36.80;;;;;;5044353;28;19963;-60
2023/04/28 04:15:44;;;;;;;;;;;15.30;36.90;;;;;;5028267;28;20326;-61
2023/04/28 04:18:10;;;;;;;;;;;15.30;36.80;;;;;;5028358;28;19962;-61
2023/04/28 04:20:36;;;;;;;;;;;15.30;36.80;;;;;;5044813;28;20348;-60
2023/04/28 04:23:02;;;;;;;;;;;15.40;36.80;;;;;;5029059;28;19956;-60
2023/04/28 04:25:28;;;;;;;;;;;15.40;36.80;;;;;;5047040;28;20483;-60
2023/04/28 04:27:53;;;;;;;;;;;15.40;36.90;;;;;;5047019;28;19992;-60
2023/04/28 04:30:19;;;;;;;;;;;15.40;36.90;;;;;;5033272;28;19947;-61
2023/04/28 04:32:44;;;;;;;;;;;15.40;37.00;;;;;;5046394;28;19931;-60
2023/04/28 04:35:10;;;;;;;;;;;15.40;37.00;;;;;;5046114;28;19928;-60
2023/04/28 04:37:35;;;;;;;;;;;15.40;37.10;;;;;;5046043;28;19927;-60
2023/04/28 04:40:01;;;;;;;;;;;15.40;37.10;;;;;;5028041;28;20039;-61
2023/04/28 04:42:27;;;;;;;;;;;15.40;37.10;;;;;;5045852;28;20361;-60
2023/04/28 04:44:52;;;;;;;;;;;15.40;37.10;;;;;;5046176;28;19948;-61
2023/04/28 04:47:18;;;;;;;;;;;15.40;37.10;;;;;;5046140;28;20416;-60
2023/04/28 04:49:44;;;;;;;;;;;15.40;37.20;;;;;;5047643;28;19913;-60
2023/04/28 04:52:09;;;;;;;;;;;15.50;37.20;;;;;;5047438;28;20012;-61
2023/04/28 04:54:34;;;;;;;;;;;15.50;37.30;;;;;;5046428;28;19917;-60
2023/04/28 04:57:01;;;;;;;;;;;15.50;37.30;;;;;;5045681;28;19917;-60
2023/04/28 04:59:27;;;;;;;;;;;15.50;37.40;;;;;;5045531;28;20024;-60
2023/04/28 05:01:52;;;;;;;;;;;15.50;37.60;;;;;;5045683;28;20019;-60
2023/04/28 05:04:17;;;;;;;;;;;15.40;37.70;;;;;;5027683;28;20392;-59
2023/04/28 05:06:43;;;;;;;;;;;15.40;37.80;;;;;;5045403;28;19921;-60
2023/04/28 05:09:08;;;;;;;;;;;15.40;38.00;;;;;;5044371;28;19984;-61
2023/04/28 05:11:34;;;;;;;;;;;15.40;38.10;;;;;;5047467;28;20451;-61
2023/04/28 05:13:59;;;;;;;;;;;15.40;38.10;;;;;;5047254;28;19928;-60
2023/04/28 05:16:25;;;;;;;;;;;15.50;38.10;;;;;;5046795;28;19928;-61
2023/04/28 05:18:51;;;;;;;;;;;15.60;38.00;;;;;;5047060;28;19944;-59
2023/04/28 05:21:17;;;;;;;;;;;15.70;38.00;;;;;;5045359;28;20297;-60
2023/04/28 05:23:42;;;;;;;;;;;15.70;38.00;;;;;;5026346;28;20006;-61
2023/04/28 05:26:07;;;;;;;;;;;15.70;37.90;;;;;;5029702;28;19913;-61
2023/04/28 05:28:33;;;;;;;;;;;15.80;37.80;;;;;;5026815;28;19921;-61
2023/04/28 05:30:58;;;;;;;;;;;15.80;37.80;;;;;;5048682;28;19978;-61
2023/04/28 05:33:24;;;;;;;;;;;15.90;37.70;;;;;;5045567;28;19913;-61
2023/04/28 05:35:50;;;;;;;;;;;16.00;37.60;;;;;;5044897;28;20121;-61
2023/04/28 05:38:16;;;;;;;;;;;16.10;37.60;;;;;;5045254;28;19917;-60
2023/04/28 05:40:41;;;;;;;;;;;16.20;37.60;;;;;;5040791;28;19943;-61
2023/04/28 05:43:08;;;;;;;;;;;16.30;37.50;;;;;;5044163;28;21145;-61
2023/04/28 05:45:34;;;;;;;;;;;16.40;37.40;;;;;;5021916;28;19913;-60
2023/04/28 05:47:59;;;;;;;;;;;16.50;37.30;;;;;;5047911;28;19921;-61
2023/04/28 05:50:25;;;;;;;;;;;16.60;37.20;;;;;;5045264;28;19931;-60
2023/04/28 05:52:50;;;;;;;;;;;16.70;37.10;;;;;;5044462;28;19917;-61
2023/04/28 05:55:16;;;;;;;;;;;16.70;37.00;;;;;;5045861;28;19913;-60
2023/04/28 05:57:41;;;;;;;;;;;16.80;37.00;;;;;;5045189;28;19921;-61
2023/04/28 06:00:07;;;;;;;;;;;16.80;37.00;;;;;;5040410;28;19916;-61
2023/04/28 06:02:32;;;;;;;;;;;16.80;36.90;;;;;;5044546;28;20364;-61
2023/04/28 06:04:58;;;;;;;;;;;16.80;36.90;;;;;;5045245;28;20237;-61
2023/04/28 06:07:23;;;;;;;;;;;16.90;36.80;;;;;;5042912;28;20289;-61
2023/04/28 06:09:48;;;;;;;;;;;17.00;36.70;;;;;;5045902;28;20408;-60
2023/04/28 06:12:14;;;;;;;;;;;17.00;36.60;;;;;;5045598;28;19963;-61
2023/04/28 06:14:39;;;;;;;;;;;17.10;36.60;;;;;;5044844;28;19917;-61
2023/04/28 06:17:05;;;;;;;;;;;17.20;36.70;;;;;;5044609;28;19917;-61
2023/04/28 06:19:30;;;;;;;;;;;17.30;36.70;;;;;;5025744;28;19963;-60
2023/04/28 06:21:56;;;;;;;;;;;17.30;36.70;;;;;;5040976;28;19928;-60
2023/04/28 06:24:21;;;;;;;;;;;17.40;36.80;;;;;;5044964;28;19913;-61
2023/04/28 06:26:46;;;;;;;;;;;17.50;36.70;;;;;;5046255;28;20382;-61
2023/04/28 06:29:12;;;;;;;;;;;17.50;36.70;;;;;;5044925;28;20000;-60
2023/04/28 06:31:38;;;;;;;;;;;17.60;36.60;;;;;;5046323;28;20379;-61
2023/04/28 06:34:03;;;;;;;;;;;17.70;36.50;;;;;;5046470;28;19935;-61
2023/04/28 06:36:28;;;;;;;;;;;17.70;36.40;;;;;;5050841;28;19912;-60
2023/04/28 06:38:54;;;;;;;;;;;17.70;36.30;;;;;;5050001;28;19924;-61
2023/04/28 06:41:20;;;;;;;;;;;17.80;36.40;;;;;;5048510;28;20003;-61
2023/04/28 06:43:45;;;;;;;;;;;17.90;36.40;;;;;;5049314;28;19921;-61
2023/04/28 06:46:11;;;;;;;;;;;18.00;36.40;;;;;;5049246;28;20003;-61
2023/04/28 06:48:36;;;;;;;;;;;18.10;36.40;;;;;;5049674;28;19943;-60
2023/04/28 06:51:02;;;;;;;;;;;18.20;36.10;;;;;;5045463;28;19932;-61
2023/04/28 06:53:28;;;;;;;;;;;18.20;36.00;;;;;;5049323;28;20280;-61
2023/04/28 06:55:53;;;;;;;;;;;18.30;35.80;;;;;;5036651;28;20287;-60
2023/04/28 06:58:19;;;;;;;;;;;18.30;35.60;;;;;;5043959;28;19912;-61
2023/04/28 07:00:45;;;;;;;;;;;18.30;35.30;;;;;;5049488;28;19923;-60
2023/04/28 07:03:10;;;;;;;;;;;18.40;35.30;;;;;;5049616;28;19955;-61
2023/04/28 07:05:36;;;;;;;;;;;18.30;35.20;;;;;;5048441;28;19982;-60
2023/04/28 07:08:02;;;;;;;;;;;18.30;35.30;;;;;;5049279;28;19917;-60
2023/04/28 07:10:27;;;;;;;;;;;18.30;35.40;;;;;;5046965;28;19924;-60
2023/04/28 07:12:53;;;;;;;;;;;18.30;35.50;;;;;;5049435;28;20263;-61
2023/04/28 07:15:18;;;;;;;;;;;18.40;35.60;;;;;;5049523;28;19917;-60
2023/04/28 07:17:44;;;;;;;;;;;18.40;35.60;;;;;;5039008;28;19917;-60
2023/04/28 07:20:09;;;;;;;;;;;18.30;35.60;;;;;;5049236;28;19921;-61
2023/04/28 07:22:35;;;;;;;;;;;18.30;35.70;;;;;;5048083;28;20031;-60
2023/04/28 07:25:00;;;;;;;;;;;18.30;35.70;;;;;;5048928;28;19940;-61
2023/04/28 07:27:26;;;;;;;;;;;18.30;35.80;;;;;;5047473;28;19921;-61
2023/04/28 07:29:51;;;;;;;;;;;18.30;35.90;;;;;;5049055;28;20000;-61
2023/04/28 07:32:17;;;;;;;;;;;18.20;35.90;;;;;;5048490;28;20570;-60
2023/04/28 07:34:42;;;;;;;;;;;18.30;36.00;;;;;;5048765;28;20263;-60
2023/04/28 07:37:08;;;;;;;;;;;18.30;36.00;;;;;;5048451;28;19959;-60
2023/04/28 07:39:34;;;;;;;;;;;18.40;35.90;;;;;;5048969;28;19925;-60
2023/04/28 07:42:01;;;;;;;;;;;18.50;35.90;;;;;;5030554;28;19921;-60
2023/04/28 07:44:27;;;;;;;;;;;18.60;36.00;;;;;;5047172;28;19917;-60
2023/04/28 07:46:52;;;;;;;;;;;18.70;36.00;;;;;;5047635;28;19921;-60
2023/04/28 07:49:17;;;;;;;;;;;18.70;35.90;;;;;;5046761;28;19913;-61
2023/04/28 07:51:43;;;;;;;;;;;18.90;36.10;;;;;;5046485;28;20019;-60
2023/04/28 07:54:08;;;;;;;;;;;19.00;36.10;;;;;;5047579;28;19996;-61
2023/04/28 07:56:34;;;;;;;;;;;19.10;36.10;;;;;;5048421;28;19913;-60
2023/04/28 07:58:59;;;;;;;;;;;19.20;36.10;;;;;;5047416;28;19928;-60
2023/04/28 08:01:25;;;;;;;;;;;19.20;36.00;;;;;;5031074;28;19927;-60
2023/04/28 08:03:50;;;;;;;;;;;19.20;36.00;;;;;;5048211;28;20439;-60
2023/04/28 08:06:16;;;;;;;;;;;19.30;36.20;;;;;;5048151;28;19935;-60
2023/04/28 08:08:41;;;;;;;;;;;19.40;36.80;;;;;;5048393;28;19978;-60
2023/04/28 08:11:07;;;;;;;;;;;19.40;38.50;;;;;;5048471;28;19916;-60
2023/04/28 08:13:32;;;;;;;;;;;19.30;39.90;;;;;;5048239;28;19917;-60
2023/04/28 08:16:01;;;;;;;;;;;19.10;40.90;;;;;;5046836;28;20262;-60
2023/04/28 08:18:27;;;;;;;;;;;19.00;41.30;;;;;;5046415;28;19921;-60
2023/04/28 08:20:52;;;;;;;;;;;18.90;41.30;;;;;;5047792;28;20062;-60
2023/04/28 08:23:19;;;;;;;;;;;19.00;41.10;;;;;;5047051;28;19978;-60
2023/04/28 08:25:45;;;;;;;;;;;19.00;40.80;;;;;;5046579;28;19921;-60
2023/04/28 08:28:11;;;;;;;;;;;19.20;40.40;;;;;;5046147;28;19920;-60
2023/04/28 08:30:37;;;;;;;;;;;19.20;39.50;;;;;;5047552;28;20384;-60
2023/04/28 08:33:03;;;;;;;;;;;19.40;39.20;;;;;;5045741;28;19924;-60
2023/04/28 08:35:28;;;;;;;;;;;19.60;38.70;;;;;;5048340;28;20344;-60
2023/04/28 08:37:54;;;;;;;;;;;19.80;38.50;;;;;;5047494;28;20381;-60
2023/04/28 08:40:19;;;;;;;;;;;20.20;38.40;;;;;;5047657;28;19920;-61
2023/04/28 08:42:46;;;;;;;;;;;20.40;37.90;;;;;;5046561;28;19925;-60
2023/04/28 08:45:14;;;;;;;;;;;20.60;37.20;;;;;;5048166;28;19950;-60
2023/04/28 08:47:44;;;;;;;;;;;20.70;36.80;;;;;;5046309;28;19927;-60
2023/04/28 08:50:11;;;;;;;;;;;20.80;36.80;;;;;;5047579;28;20387;-61
2023/04/28 08:52:37;;;;;;;;;;;21.00;36.40;;;;;;5047283;28;20133;-61
2023/04/28 08:55:06;;;;;;;;;;;21.00;35.80;;;;;;5047565;28;19969;-61
2023/04/28 08:57:36;;;;;;;;;;;21.00;35.80;;;;;;5044628;28;20384;-61
2023/04/28 09:00:02;;;;;;;;;;;21.00;35.70;;;;;;5047481;28;19912;-61
2023/04/28 09:02:27;;;;;;;;;;;21.10;35.70;;;;;;5045030;28;19968;-61
2023/04/28 09:04:53;;;;;;;;;;;21.10;35.50;;;;;;5047349;28;19943;-60
2023/04/28 09:07:18;;;;;;;;;;;21.00;35.60;;;;;;5046337;28;20360;-61
2023/04/28 09:09:44;;;;;;;;;;;21.10;35.90;;;;;;5047245;28;19913;-61
2023/04/28 09:12:10;;;;;;;;;;;21.20;35.80;;;;;;5046280;28;19912;-60
2023/04/28 09:14:36;;;;;;;;;;;21.20;35.50;;;;;;5045114;28;19917;-61
2023/04/28 09:17:02;;;;;;;;;;;21.20;35.50;;;;;;5046847;28;19932;-61
2023/04/28 09:19:35;;;;;;;;;;;21.20;35.80;;;;;;5045825;28;19916;-61
2023/04/28 09:22:00;;;;;;;;;;;21.20;35.80;;;;;;5047178;28;19931;-61
2023/04/28 09:24:27;;;;;;;;;;;21.20;35.70;;;;;;5046272;28;19909;-61
2023/04/28 09:26:53;;;;;;;;;;;21.20;35.70;;;;;;5045761;28;19920;-61
2023/04/28 09:29:18;;;;;;;;;;;21.10;35.90;;;;;;5046847;28;19909;-61
2023/04/28 09:31:44;;;;;;;;;;;21.00;36.00;;;;;;5043631;28;19927;-61
2023/04/28 09:34:11;;;;;;;;;;;20.90;36.20;;;;;;5047306;28;19912;-61
2023/04/28 09:36:36;;;;;;;;;;;20.80;36.30;;;;;;5046736;28;20395;-60
2023/04/28 09:39:02;;;;;;;;;;;20.70;36.60;;;;;;5046015;28;19917;-61
2023/04/28 09:41:40;;;;;;;;;;;20.70;36.90;;;;;;5046061;28;20031;-61
2023/04/28 09:44:13;;;;;;;;;;;20.60;37.10;;;;;;5043118;28;19917;-61
2023/04/28 09:46:39;;;;;;;;;;;20.60;37.90;;;;;;5047071;28;20414;-61
2023/04/28 09:49:04;;;;;;;;;;;20.50;38.60;;;;;;5046071;28;19917;-61
2023/04/28 09:51:30;;;;;;;;;;;20.40;39.90;;;;;;5046839;28;20054;-61
2023/04/28 09:53:58;;;;;;;;;;;20.30;41.80;;;;;;5045921;28;19920;-61
2023/04/28 09:56:25;;;;;;;;;;;20.20;45.00;;;;;;5046562;28;20026;-61
2023/04/28 09:58:51;;;;;;;;;;;20.10;48.40;;;;;;5045602;28;19924;-61
2023/04/28 10:01:17;;;;;;;;;;;20.10;51.20;;;;;;5046291;28;20387;-61
2023/04/28 10:03:43;;;;;;;;;;;20.10;53.20;;;;;;5043954;28;19917;-61
2023/04/28 10:06:08;;;;;;;;;;;20.20;54.90;;;;;;5046690;28;20167;-61
2023/04/28 10:08:34;;;;;;;;;;;20.30;56.10;;;;;;5045960;28;19928;-61
2023/04/28 10:11:00;;;;;;;;;;;20.50;56.40;;;;;;5049707;28;19923;-61
2023/04/28 10:13:25;;;;;;;;;;;20.70;56.90;;;;;;5050526;28;19913;-61
2023/04/28 10:15:54;;;;;;;;;;;20.60;57.20;;;;;;5049385;28;20648;-61
2023/04/28 10:18:21;;;;;;;;;;;20.70;57.00;;;;;;5050304;28;19919;-61
2023/04/28 10:20:48;;;;;;;;;;;20.70;56.90;;;;;;5049612;28;20323;-61
2023/04/28 10:23:24;;;;;;;;;;;20.70;57.00;;;;;;5050316;28;20306;-61
2023/04/28 10:25:53;;;;;;;;;;;20.60;57.10;;;;;;5050056;28;19923;-60
2023/04/28 10:28:18;;;;;;;;;;;20.50;57.70;;;;;;5050423;28;20429;-62
2023/04/28 10:31:04;;;;;;;;;;;20.60;58.20;;;;;;5048113;28;19928;-62
2023/04/28 10:33:31;;;;;;;;;;;20.50;57.20;;;;;;5050325;28;20341;-59
2023/04/28 10:35:56;;;;;;;;;;;20.70;57.50;;;;;;5048806;28;19920;-60
2023/04/28 10:38:22;;;;;;;;;;;20.70;58.20;;;;;;5048171;28;19920;-60
2023/04/28 10:40:48;;;;;;;;;;;21.00;58.20;;;;;;5048978;28;20011;-60
2023/04/28 10:43:31;;;;;;;;;;;21.40;58.40;;;;;;5050506;28;19994;-61
2023/04/28 10:46:00;;;;;;;;;;;22.10;59.10;;;;;;5049555;28;19913;-61
2023/04/28 10:48:25;;;;;;;;;;;22.60;57.50;;;;;;5049943;28;19964;-61
2023/04/28 10:51:06;;;;;;;;;;;23.00;56.80;;;;;;5048533;28;19948;-62
2023/04/28 10:53:44;;;;;;;;;;;23.30;54.70;;;;;;5049947;28;19919;-62
2023/04/28 10:56:20;;;;;;;;;;;23.50;53.40;;;;;;5049196;28;20019;-61
2023/04/28 10:58:46;;;;;;;;;;;23.60;52.30;;;;;;5049784;28;20267;-61
2023/04/28 11:01:22;;;;;;;;;;;23.50;51.20;;;;;;5049362;28;19924;-61
2023/04/28 11:03:53;;;;;;;;;;;23.30;51.00;;;;;;5050013;28;19979;-61
2023/04/28 11:06:34;;;;;;;;;;;23.10;51.00;;;;;;5047495;28;19983;-60
2023/04/28 11:09:23;;;;;;;;;;;22.90;50.10;;;;;;5049692;28;20148;-61
2023/04/28 11:12:09;;;;;;;;;;;22.80;50.90;;;;;;5048399;28;19917;-62
2023/04/28 11:14:39;;;;;;;;;;;22.80;52.50;;;;;;5049831;28;19909;-61
2023/04/28 11:17:05;;;;;;;;;;;22.80;52.80;;;;;;5047270;28;19924;-61
2023/04/28 11:19:32;;;;;;;;;;;22.90;52.40;;;;;;5049340;28;20327;-61
2023/04/28 11:21:58;;;;;;;;;;;23.00;52.70;;;;;;5048018;28;19917;-60
2023/04/28 11:24:24;;;;;;;;;;;23.20;50.80;;;;;;5048799;28;19920;-61
2023/04/28 11:26:51;;;;;;;;;;;23.20;50.30;;;;;;5049613;28;19920;-61
2023/04/28 11:29:17;;;;;;;;;;;23.30;50.50;;;;;;5047044;28;19909;-61
2023/04/28 11:31:50;;;;;;;;;;;23.50;48.60;;;;;;5049093;28;20415;-61
2023/04/28 11:34:18;;;;;;;;;;;23.50;48.30;;;;;;5046654;28;19924;-61
2023/04/28 11:36:43;;;;;;;;;;;23.50;48.10;;;;;;5049278;28;19917;-61
2023/04/28 11:39:09;;;;;;;;;;;23.70;48.30;;;;;;5048769;28;19927;-60
2023/04/28 11:41:35;;;;;;;;;;;23.80;48.30;;;;;;5049258;28;19923;-61
2023/04/28 11:44:11;;;;;;;;;;;24.00;48.10;;;;;;5048994;28;19912;-60
2023/04/28 11:46:43;;;;;;;;;;;24.20;47.70;;;;;;5029238;28;20261;-60
2023/04/28 11:49:08;;;;;;;;;;;24.30;46.60;;;;;;5043111;28;19924;-60
2023/04/28 11:51:35;;;;;;;;;;;24.50;46.60;;;;;;5049148;28;19913;-61
2023/04/28 11:54:02;;;;;;;;;;;24.70;44.80;;;;;;5046435;28;20003;-61
2023/04/28 11:56:28;;;;;;;;;;;25.00;44.60;;;;;;5048957;28;19913;-61
2023/04/28 11:59:00;;;;;;;;;;;25.20;43.60;;;;;;5048028;28;19917;-61
2023/04/28 12:01:26;;;;;;;;;;;25.40;43.70;;;;;;5047980;28;20385;-62
2023/04/28 12:03:51;;;;;;;;;;;25.50;43.00;;;;;;5048863;28;20006;-61
2023/04/28 12:06:17;;;;;;;;;;;25.50;42.20;;;;;;5047948;28;20264;-61
2023/04/28 12:08:43;;;;;;;;;;;25.50;42.50;;;;;;5048539;28;19952;-61
2023/04/28 12:11:12;;;;;;;;;;;25.40;41.50;;;;;;5047879;28;20328;-61
2023/04/28 12:13:38;;;;;;;;;;;25.30;41.20;;;;;;5030319;28;19913;-61
2023/04/28 12:16:05;;;;;;;;;;;25.30;41.90;;;;;;5044407;28;19967;-61
2023/04/28 12:18:31;;;;;;;;;;;25.40;41.40;;;;;;5048721;28;19924;-61
2023/04/28 12:20:57;;;;;;;;;;;25.40;40.80;;;;;;5047390;28;20189;-61
2023/04/28 12:23:31;;;;;;;;;;;25.20;40.10;;;;;;5046710;28;19959;-61
2023/04/28 12:25:57;;;;;;;;;;;25.20;40.10;;;;;;5046949;28;19916;-62
2023/04/28 12:28:23;;;;;;;;;;;25.00;40.40;;;;;;5048319;28;19945;-61
2023/04/28 12:30:49;;;;;;;;;;;25.10;40.10;;;;;;5047278;28;19967;-60
2023/04/28 12:33:24;;;;;;;;;;;25.10;40.30;;;;;;5047635;28;19913;-61
2023/04/28 12:35:49;;;;;;;;;;;25.20;39.80;;;;;;5047346;28;20014;-60
2023/04/28 12:38:15;;;;;;;;;;;25.30;39.50;;;;;;5046668;28;20442;-61
2023/04/28 12:40:41;;;;;;;;;;;25.30;39.40;;;;;;5046122;28;19924;-62
2023/04/28 12:43:06;;;;;;;;;;;25.30;39.10;;;;;;5048143;28;20431;-62
2023/04/28 12:45:33;;;;;;;;;;;25.40;39.20;;;;;;5047266;28;20472;-62
2023/04/28 12:47:58;;;;;;;;;;;25.40;39.50;;;;;;5047148;28;19955;-62
2023/04/28 12:50:24;;;;;;;;;;;25.40;39.00;;;;;;5047289;28;19913;-61
2023/04/28 12:52:50;;;;;;;;;;;25.40;39.40;;;;;;5047530;28;19912;-61
2023/04/28 12:55:15;;;;;;;;;;;25.40;39.10;;;;;;5045376;28;19967;-62
2023/04/28 12:57:41;;;;;;;;;;;25.50;39.10;;;;;;5045956;28;19920;-61
2023/04/28 13:00:07;;;;;;;;;;;25.50;39.50;;;;;;5046584;28;19952;-61
2023/04/28 13:02:32;;;;;;;;;;;25.70;39.50;;;;;;5046641;28;19971;-61
2023/04/28 13:04:58;;;;;;;;;;;25.80;39.40;;;;;;5046816;28;19921;-62
2023/04/28 13:07:23;;;;;;;;;;;26.10;39.30;;;;;;5047436;28;19917;-61
2023/04/28 13:09:48;;;;;;;;;;;26.40;39.40;;;;;;5045315;28;19912;-62
2023/04/28 13:12:14;;;;;;;;;;;26.70;38.10;;;;;;5047144;28;20457;-62
2023/04/28 13:14:40;;;;;;;;;;;26.80;38.30;;;;;;5046272;28;19917;-61
2023/04/28 13:17:05;;;;;;;;;;;27.00;38.80;;;;;;5047244;28;19992;-61
2023/04/28 13:19:32;;;;;;;;;;;27.10;37.40;;;;;;5046531;28;19912;-61
2023/04/28 13:21:58;;;;;;;;;;;27.10;36.90;;;;;;5045104;28;20019;-61
2023/04/28 13:24:23;;;;;;;;;;;27.10;36.60;;;;;;5046947;28;20016;-61
2023/04/28 13:26:48;;;;;;;;;;;27.10;37.00;;;;;;5046915;28;19917;-61
2023/04/28 13:29:14;;;;;;;;;;;27.10;36.80;;;;;;5030871;28;19909;-61
2023/04/28 13:31:40;;;;;;;;;;;27.00;36.60;;;;;;5025869;28;19912;-61
2023/04/28 13:34:06;;;;;;;;;;;26.70;36.10;;;;;;5046954;28;19913;-64
2023/04/28 13:36:32;;;;;;;;;;;26.60;36.20;;;;;;5045929;28;20341;-62
2023/04/28 13:38:57;;;;;;;;;;;26.30;36.30;;;;;;5043496;28;20012;-62
2023/04/28 13:41:23;;;;;;;;;;;26.20;37.00;;;;;;5046366;28;20019;-62
2023/04/28 13:43:48;;;;;;;;;;;26.20;37.30;;;;;;5043075;28;20375;-62
2023/04/28 13:46:14;;;;;;;;;;;26.10;37.40;;;;;;5044807;28;20283;-62
2023/04/28 13:48:39;;;;;;;;;;;26.10;37.70;;;;;;5046191;28;19919;-62
2023/04/28 13:51:06;;;;;;;;;;;26.10;37.60;;;;;;5043333;28;19913;-62
2023/04/28 13:53:31;;;;;;;;;;;26.10;37.60;;;;;;5036636;28;20258;-61
2023/04/28 13:55:57;;;;;;;;;;;26.10;38.00;;;;;;5038931;28;19939;-62
2023/04/28 13:58:25;;;;;;;;;;;26.10;37.80;;;;;;5036518;28;19917;-62
2023/04/28 14:00:51;;;;;;;;;;;26.10;37.40;;;;;;5032375;28;20379;-61
2023/04/28 14:03:18;;;;;;;;;;;26.00;37.50;;;;;;5046500;28;19917;-62
2023/04/28 14:05:44;;;;;;;;;;;25.80;38.50;;;;;;5045841;28;19963;-63
2023/04/28 14:08:09;;;;;;;;;;;25.40;40.10;;;;;;5045916;28;19916;-62
2023/04/28 14:10:35;;;;;;;;;;;25.00;42.00;;;;;;5043884;28;19916;-61